sensor_id;sensor_type;location;lat;lon;timestamp;temperature;humidity
11744;DHT22;5929;51.906;7.674;2023-05-14T00:02:16;11.90;99.90
11744;DHT22;5929;51.906;7.674;2023-05-14T00:04:43;11.80;99.90
11744;DHT22;5929;51.906;7.674;2023-05-14T00:07:10;11.80;99.90
11744;DHT22;5929;51.906;7.674;2023-05-14T00:09:37;11.80;99.90
11744;DHT22;5929;51.906;7.674;2023-05-14T00:12:04;11.70;99.90
11744;DHT22;5929;51.906;7.674;2023-05-14T00:14:31;11.60;99.90
11744;DHT22;5929;51.906;7.674;2023-05-14T00:16:59;11.60;99.90
11744;DHT22;5929;51.906;7.674;2023-05-14T00:19:26;11.50;99.90
11744;DHT22;5929;51.906;7.674;2023-05-14T00:21:55;11.50;99.90
11744;DHT22;5929;51.906;7.674;2023-05-14T00:24:22;11.50;99.90
11744;DHT22;5929;51.906;7.674;2023-05-14T00:26:49;11.50;99.90
11744;DHT22;5929;51.906;7.674;2023-05-14T00:29:16;11.50;99.90
11744;DHT22;5929;51.906;7.674;2023-05-14T00:31:42;11.50;99.90
11744;DHT22;5929;51.906;7.674;2023-05-14T00:34:10;11.50;99.90
11744;DHT22;5929;51.906;7.674;2023-05-14T00:36:37;11.40;99.90
11744;DHT22;5929;51.906;7.674;2023-05-14T00:39:04;11.50;99.90
11744;DHT22;5929;51.906;7.674;2023-05-14T00:41:31;11.40;99.90
11744;DHT22;5929;51.906;7.674;2023-05-14T00:43:58;11.40;99.90
11744;DHT22;5929;51.906;7.674;2023-05-14T00:46:25;11.30;99.90
11744;DHT22;5929;51.906;7.674;2023-05-14T00:48:52;11.30;99.90
11744;DHT22;5929;51.906;7.674;2023-05-14T00:51:20;11.30;99.90
11744;DHT22;5929;51.906;7.674;2023-05-14T00:53:47;11.20;99.90
11744;DHT22;5929;51.906;7.674;2023-05-14T00:56:15;11.20;99.90
11744;DHT22;5929;51.906;7.674;2023-05-14T00:58:42;11.20;99.90
11744;DHT22;5929;51.906;7.674;2023-05-14T01:01:09;11.20;99.90
11744;DHT22;5929;51.906;7.674;2023-05-14T01:03:36;11.20;99.90
11744;DHT22;5929;51.906;7.674;2023-05-14T01:06:08;11.10;99.90
11744;DHT22;5929;51.906;7.674;2023-05-14T01:08:45;11.10;99.90
11744;DHT22;5929;51.906;7.674;2023-05-14T01:11:19;11.00;99.90
11744;DHT22;5929;51.906;7.674;2023-05-14T01:13:59;10.90;99.90
11744;DHT22;5929;51.906;7.674;2023-05-14T01:16:28;10.90;99.90
11744;DHT22;5929;51.906;7.674;2023-05-14T01:18:57;10.90;99.90
11744;DHT22;5929;51.906;7.674;2023-05-14T01:21:35;10.80;99.90
11744;DHT22;5929;51.906;7.674;2023-05-14T01:24:03;10.80;99.90
11744;DHT22;5929;51.906;7.674;2023-05-14T01:26:30;10.80;99.90
11744;DHT22;5929;51.906;7.674;2023-05-14T01:29:00;10.80;99.90
11744;DHT22;5929;51.906;7.674;2023-05-14T01:31:28;10.70;99.90
11744;DHT22;5929;51.906;7.674;2023-05-14T01:33:58;10.70;99.90
11744;DHT22;5929;51.906;7.674;2023-05-14T01:36:26;10.80;99.90
11744;DHT22;5929;51.906;7.674;2023-05-14T01:38:55;10.70;99.90
11744;DHT22;5929;51.906;7.674;2023-05-14T01:41:24;10.80;99.90
11744;DHT22;5929;51.906;7.674;2023-05-14T01:43:51;10.70;99.90
11744;DHT22;5929;51.906;7.674;2023-05-14T01:46:18;10.70;99.90
11744;DHT22;5929;51.906;7.674;2023-05-14T01:48:45;10.60;99.90
11744;DHT22;5929;51.906;7.674;2023-05-14T01:51:12;10.60;99.90
11744;DHT22;5929;51.906;7.674;2023-05-14T01:53:39;10.60;99.90
11744;DHT22;5929;51.906;7.674;2023-05-14T01:56:07;10.60;99.90
11744;DHT22;5929;51.906;7.674;2023-05-14T01:58:34;10.60;99.90
11744;DHT22;5929;51.906;7.674;2023-05-14T02:01:01;10.60;99.90
11744;DHT22;5929;51.906;7.674;2023-05-14T02:03:28;10.60;99.90
11744;DHT22;5929;51.906;7.674;2023-05-14T02:05:55;10.50;99.90
11744;DHT22;5929;51.906;7.674;2023-05-14T02:08:22;10.50;99.90
11744;DHT22;5929;51.906;7.674;2023-05-14T02:10:49;10.40;99.90
11744;DHT22;5929;51.906;7.674;2023-05-14T02:13:17;10.50;99.90
11744;DHT22;5929;51.906;7.674;2023-05-14T02:15:44;10.40;99.90
11744;DHT22;5929;51.906;7.674;2023-05-14T02:18:11;10.50;99.90
11744;DHT22;5929;51.906;7.674;2023-05-14T02:20:37;10.50;99.90
11744;DHT22;5929;51.906;7.674;2023-05-14T02:23:04;10.60;99.90
11744;DHT22;5929;51.906;7.674;2023-05-14T02:25:31;10.60;99.90
11744;DHT22;5929;51.906;7.674;2023-05-14T02:27:58;10.60;99.90
11744;DHT22;5929;51.906;7.674;2023-05-14T02:30:26;10.50;99.90
11744;DHT22;5929;51.906;7.674;2023-05-14T02:32:54;10.60;99.90
11744;DHT22;5929;51.906;7.674;2023-05-14T02:35:21;10.60;99.90
11744;DHT22;5929;51.906;7.674;2023-05-14T02:37:48;10.60;99.90
11744;DHT22;5929;51.906;7.674;2023-05-14T02:40:15;10.50;99.90
11744;DHT22;5929;51.906;7.674;2023-05-14T02:42:41;10.50;99.90
11744;DHT22;5929;51.906;7.674;2023-05-14T02:45:09;10.60;99.90
11744;DHT22;5929;51.906;7.674;2023-05-14T02:47:38;10.70;99.90
11744;DHT22;5929;51.906;7.674;2023-05-14T02:50:06;10.60;99.90
11744;DHT22;5929;51.906;7.674;2023-05-14T02:52:33;10.50;99.90
11744;DHT22;5929;51.906;7.674;2023-05-14T02:55:00;10.40;99.90
11744;DHT22;5929;51.906;7.674;2023-05-14T02:57:27;10.50;99.90
11744;DHT22;5929;51.906;7.674;2023-05-14T02:59:53;10.50;99.90
11744;DHT22;5929;51.906;7.674;2023-05-14T03:02:20;10.40;99.90
11744;DHT22;5929;51.906;7.674;2023-05-14T03:04:48;10.40;99.90
11744;DHT22;5929;51.906;7.674;2023-05-14T03:07:16;10.30;99.90
11744;DHT22;5929;51.906;7.674;2023-05-14T03:09:42;10.20;99.90
11744;DHT22;5929;51.906;7.674;2023-05-14T03:12:09;10.20;99.90
11744;DHT22;5929;51.906;7.674;2023-05-14T03:14:37;10.20;99.90
11744;DHT22;5929;51.906;7.674;2023-05-14T03:17:04;10.10;99.90
11744;DHT22;5929;51.906;7.674;2023-05-14T03:19:31;10.10;99.90
11744;DHT22;5929;51.906;7.674;2023-05-14T03:21:59;10.00;99.90
11744;DHT22;5929;51.906;7.674;2023-05-14T03:24:26;10.00;99.90
11744;DHT22;5929;51.906;7.674;2023-05-14T03:26:52;9.90;99.90
11744;DHT22;5929;51.906;7.674;2023-05-14T03:29:19;9.90;99.90
11744;DHT22;5929;51.906;7.674;2023-05-14T03:31:46;9.80;99.90
11744;DHT22;5929;51.906;7.674;2023-05-14T03:34:14;9.80;99.90
11744;DHT22;5929;51.906;7.674;2023-05-14T03:36:41;9.80;99.90
11744;DHT22;5929;51.906;7.674;2023-05-14T03:39:09;9.70;99.90
11744;DHT22;5929;51.906;7.674;2023-05-14T03:41:36;9.60;99.90
11744;DHT22;5929;51.906;7.674;2023-05-14T03:44:03;9.70;99.90
11744;DHT22;5929;51.906;7.674;2023-05-14T03:46:30;9.60;99.90
11744;DHT22;5929;51.906;7.674;2023-05-14T03:48:57;9.60;99.90
11744;DHT22;5929;51.906;7.674;2023-05-14T03:51:24;9.60;99.90
11744;DHT22;5929;51.906;7.674;2023-05-14T03:53:51;9.50;99.90
11744;DHT22;5929;51.906;7.674;2023-05-14T03:56:19;9.50;99.90
11744;DHT22;5929;51.906;7.674;2023-05-14T03:58:46;9.40;99.90
11744;DHT22;5929;51.906;7.674;2023-05-14T04:01:13;9.60;99.90
11744;DHT22;5929;51.906;7.674;2023-05-14T04:03:40;9.60;99.90
11744;DHT22;5929;51.906;7.674;2023-05-14T04:06:07;9.60;99.90
11744;DHT22;5929;51.906;7.674;2023-05-14T04:08:33;9.60;99.90
11744;DHT22;5929;51.906;7.674;2023-05-14T04:11:00;9.70;99.90
11744;DHT22;5929;51.906;7.674;2023-05-14T04:13:28;9.80;99.90
11744;DHT22;5929;51.906;7.674;2023-05-14T04:15:55;9.90;99.90
11744;DHT22;5929;51.906;7.674;2023-05-14T04:18:22;10.00;99.90
11744;DHT22;5929;51.906;7.674;2023-05-14T04:20:49;9.90;99.90
11744;DHT22;5929;51.906;7.674;2023-05-14T04:23:16;9.90;99.90
11744;DHT22;5929;51.906;7.674;2023-05-14T04:25:43;9.90;99.90
11744;DHT22;5929;51.906;7.674;2023-05-14T04:28:10;9.80;99.90
11744;DHT22;5929;51.906;7.674;2023-05-14T04:30:38;9.90;99.90
11744;DHT22;5929;51.906;7.674;2023-05-14T04:33:07;10.00;99.90
11744;DHT22;5929;51.906;7.674;2023-05-14T04:35:37;10.10;99.90
11744;DHT22;5929;51.906;7.674;2023-05-14T04:38:04;10.20;99.90
11744;DHT22;5929;51.906;7.674;2023-05-14T04:40:31;10.40;99.90
11744;DHT22;5929;51.906;7.674;2023-05-14T04:42:58;10.50;99.90
11744;DHT22;5929;51.906;7.674;2023-05-14T04:45:25;10.50;99.90
11744;DHT22;5929;51.906;7.674;2023-05-14T04:47:53;10.60;99.90
11744;DHT22;5929;51.906;7.674;2023-05-14T04:50:20;10.60;99.90
11744;DHT22;5929;51.906;7.674;2023-05-14T04:52:47;10.70;99.90
11744;DHT22;5929;51.906;7.674;2023-05-14T04:55:14;10.70;99.90
11744;DHT22;5929;51.906;7.674;2023-05-14T04:57:41;10.70;99.90
11744;DHT22;5929;51.906;7.674;2023-05-14T05:00:08;10.70;99.90
11744;DHT22;5929;51.906;7.674;2023-05-14T05:02:36;10.80;99.90
11744;DHT22;5929;51.906;7.674;2023-05-14T05:05:04;10.80;99.90
11744;DHT22;5929;51.906;7.674;2023-05-14T05:07:31;10.90;99.90
11744;DHT22;5929;51.906;7.674;2023-05-14T05:09:58;11.00;99.90
11744;DHT22;5929;51.906;7.674;2023-05-14T05:12:25;11.00;99.90
11744;DHT22;5929;51.906;7.674;2023-05-14T05:14:54;11.00;99.90
11744;DHT22;5929;51.906;7.674;2023-05-14T05:17:21;11.00;99.90
11744;DHT22;5929;51.906;7.674;2023-05-14T05:19:48;11.00;99.90
11744;DHT22;5929;51.906;7.674;2023-05-14T05:22:19;10.90;99.90
11744;DHT22;5929;51.906;7.674;2023-05-14T05:24:46;10.90;99.90
11744;DHT22;5929;51.906;7.674;2023-05-14T05:27:13;10.90;99.90
11744;DHT22;5929;51.906;7.674;2023-05-14T05:29:40;11.00;99.90
11744;DHT22;5929;51.906;7.674;2023-05-14T05:32:07;11.00;99.90
11744;DHT22;5929;51.906;7.674;2023-05-14T05:34:34;10.90;99.90
11744;DHT22;5929;51.906;7.674;2023-05-14T05:37:01;10.90;99.90
11744;DHT22;5929;51.906;7.674;2023-05-14T05:39:29;10.90;99.90
11744;DHT22;5929;51.906;7.674;2023-05-14T05:41:59;10.90;99.90
11744;DHT22;5929;51.906;7.674;2023-05-14T05:44:26;10.90;99.90
11744;DHT22;5929;51.906;7.674;2023-05-14T05:46:53;11.00;99.90
11744;DHT22;5929;51.906;7.674;2023-05-14T05:49:21;11.10;99.90
11744;DHT22;5929;51.906;7.674;2023-05-14T05:51:48;11.20;99.90
11744;DHT22;5929;51.906;7.674;2023-05-14T05:54:15;11.30;99.90
11744;DHT22;5929;51.906;7.674;2023-05-14T05:56:43;11.40;99.90
11744;DHT22;5929;51.906;7.674;2023-05-14T05:59:10;11.60;99.90
11744;DHT22;5929;51.906;7.674;2023-05-14T06:01:37;11.70;99.90
11744;DHT22;5929;51.906;7.674;2023-05-14T06:04:05;11.80;99.90
11744;DHT22;5929;51.906;7.674;2023-05-14T06:06:32;11.90;99.90
11744;DHT22;5929;51.906;7.674;2023-05-14T06:08:58;12.00;99.90
11744;DHT22;5929;51.906;7.674;2023-05-14T06:11:26;12.10;99.90
11744;DHT22;5929;51.906;7.674;2023-05-14T06:13:54;12.20;99.90
11744;DHT22;5929;51.906;7.674;2023-05-14T06:16:21;12.20;99.90
11744;DHT22;5929;51.906;7.674;2023-05-14T06:18:48;12.30;99.90
11744;DHT22;5929;51.906;7.674;2023-05-14T06:21:16;12.40;99.90
11744;DHT22;5929;51.906;7.674;2023-05-14T06:23:43;12.40;99.90
11744;DHT22;5929;51.906;7.674;2023-05-14T06:26:10;12.50;99.90
11744;DHT22;5929;51.906;7.674;2023-05-14T06:28:37;12.60;99.90
11744;DHT22;5929;51.906;7.674;2023-05-14T06:31:05;12.60;99.90
11744;DHT22;5929;51.906;7.674;2023-05-14T06:33:32;12.70;99.90
11744;DHT22;5929;51.906;7.674;2023-05-14T06:36:03;12.80;99.90
11744;DHT22;5929;51.906;7.674;2023-05-14T06:38:30;12.80;99.90
11744;DHT22;5929;51.906;7.674;2023-05-14T06:40:57;12.90;99.90
11744;DHT22;5929;51.906;7.674;2023-05-14T06:43:24;13.00;99.90
11744;DHT22;5929;51.906;7.674;2023-05-14T06:45:51;13.10;99.90
11744;DHT22;5929;51.906;7.674;2023-05-14T06:48:20;13.10;99.90
11744;DHT22;5929;51.906;7.674;2023-05-14T06:50:47;13.20;99.90
11744;DHT22;5929;51.906;7.674;2023-05-14T06:53:14;13.30;99.90
11744;DHT22;5929;51.906;7.674;2023-05-14T06:55:41;13.30;99.90
11744;DHT22;5929;51.906;7.674;2023-05-14T06:58:10;13.40;99.90
11744;DHT22;5929;51.906;7.674;2023-05-14T07:00:37;13.50;99.90
11744;DHT22;5929;51.906;7.674;2023-05-14T07:03:04;13.60;99.90
11744;DHT22;5929;51.906;7.674;2023-05-14T07:05:33;13.60;99.90
11744;DHT22;5929;51.906;7.674;2023-05-14T07:08:00;13.70;99.90
11744;DHT22;5929;51.906;7.674;2023-05-14T07:10:27;13.70;99.90
11744;DHT22;5929;51.906;7.674;2023-05-14T07:12:55;13.70;99.90
11744;DHT22;5929;51.906;7.674;2023-05-14T07:15:22;13.80;99.90
11744;DHT22;5929;51.906;7.674;2023-05-14T07:17:48;13.90;99.90
11744;DHT22;5929;51.906;7.674;2023-05-14T07:20:15;14.00;99.90
11744;DHT22;5929;51.906;7.674;2023-05-14T07:22:43;14.10;99.90
11744;DHT22;5929;51.906;7.674;2023-05-14T07:25:11;14.10;99.90
11744;DHT22;5929;51.906;7.674;2023-05-14T07:27:38;14.20;99.90
11744;DHT22;5929;51.906;7.674;2023-05-14T07:30:06;14.30;99.90
11744;DHT22;5929;51.906;7.674;2023-05-14T07:32:33;14.40;99.90
11744;DHT22;5929;51.906;7.674;2023-05-14T07:35:00;14.60;99.90
11744;DHT22;5929;51.906;7.674;2023-05-14T07:37:26;14.60;99.90
11744;DHT22;5929;51.906;7.674;2023-05-14T07:39:55;14.80;99.90
11744;DHT22;5929;51.906;7.674;2023-05-14T07:42:21;14.90;99.90
11744;DHT22;5929;51.906;7.674;2023-05-14T07:44:48;14.90;99.90
11744;DHT22;5929;51.906;7.674;2023-05-14T07:47:15;15.00;99.90
11744;DHT22;5929;51.906;7.674;2023-05-14T07:49:42;15.10;99.90
11744;DHT22;5929;51.906;7.674;2023-05-14T07:52:09;15.20;99.90
11744;DHT22;5929;51.906;7.674;2023-05-14T07:54:36;15.30;99.90
11744;DHT22;5929;51.906;7.674;2023-05-14T07:57:04;15.40;99.90
11744;DHT22;5929;51.906;7.674;2023-05-14T07:59:32;15.50;99.90
11744;DHT22;5929;51.906;7.674;2023-05-14T08:01:58;15.50;99.90
11744;DHT22;5929;51.906;7.674;2023-05-14T08:04:25;15.50;99.90
11744;DHT22;5929;51.906;7.674;2023-05-14T08:06:52;15.60;99.90
11744;DHT22;5929;51.906;7.674;2023-05-14T08:09:19;15.70;99.90
11744;DHT22;5929;51.906;7.674;2023-05-14T08:11:46;15.70;99.90
11744;DHT22;5929;51.906;7.674;2023-05-14T08:14:14;15.90;99.90
11744;DHT22;5929;51.906;7.674;2023-05-14T08:16:41;15.90;99.90
11744;DHT22;5929;51.906;7.674;2023-05-14T08:19:08;15.90;99.90
11744;DHT22;5929;51.906;7.674;2023-05-14T08:21:35;16.00;99.90
11744;DHT22;5929;51.906;7.674;2023-05-14T08:24:04;16.00;99.90
11744;DHT22;5929;51.906;7.674;2023-05-14T08:26:31;16.10;99.90
11744;DHT22;5929;51.906;7.674;2023-05-14T08:28:58;16.20;99.90
11744;DHT22;5929;51.906;7.674;2023-05-14T08:31:26;16.20;99.90
11744;DHT22;5929;51.906;7.674;2023-05-14T08:33:53;16.30;99.90
11744;DHT22;5929;51.906;7.674;2023-05-14T08:36:20;16.30;99.90
11744;DHT22;5929;51.906;7.674;2023-05-14T08:38:47;16.40;99.90
11744;DHT22;5929;51.906;7.674;2023-05-14T08:41:15;16.40;99.90
11744;DHT22;5929;51.906;7.674;2023-05-14T08:43:47;16.50;99.90
11744;DHT22;5929;51.906;7.674;2023-05-14T08:46:22;16.60;99.90
11744;DHT22;5929;51.906;7.674;2023-05-14T08:48:55;16.60;99.70
11744;DHT22;5929;51.906;7.674;2023-05-14T08:51:23;16.70;99.90
11744;DHT22;5929;51.906;7.674;2023-05-14T08:53:56;16.80;99.80
11744;DHT22;5929;51.906;7.674;2023-05-14T08:56:25;17.00;99.90
11744;DHT22;5929;51.906;7.674;2023-05-14T08:58:52;17.10;98.90
11744;DHT22;5929;51.906;7.674;2023-05-14T09:01:19;17.20;98.10
11744;DHT22;5929;51.906;7.674;2023-05-14T09:03:47;17.30;98.80
11744;DHT22;5929;51.906;7.674;2023-05-14T09:06:16;17.40;97.70
11744;DHT22;5929;51.906;7.674;2023-05-14T09:08:43;17.60;97.40
11744;DHT22;5929;51.906;7.674;2023-05-14T09:11:12;17.70;97.60
11744;DHT22;5929;51.906;7.674;2023-05-14T09:13:39;17.70;98.80
11744;DHT22;5929;51.906;7.674;2023-05-14T09:16:06;17.80;98.60
11744;DHT22;5929;51.906;7.674;2023-05-14T09:18:34;17.90;97.60
11744;DHT22;5929;51.906;7.674;2023-05-14T09:21:01;17.90;96.70
11744;DHT22;5929;51.906;7.674;2023-05-14T09:23:32;18.00;95.90
11744;DHT22;5929;51.906;7.674;2023-05-14T09:26:03;18.00;97.00
11744;DHT22;5929;51.906;7.674;2023-05-14T09:28:30;18.00;97.10
11744;DHT22;5929;51.906;7.674;2023-05-14T09:30:57;18.00;97.40
11744;DHT22;5929;51.906;7.674;2023-05-14T09:33:27;18.00;97.80
11744;DHT22;5929;51.906;7.674;2023-05-14T09:35:57;17.70;96.90
11744;DHT22;5929;51.906;7.674;2023-05-14T09:38:27;17.60;97.90
11744;DHT22;5929;51.906;7.674;2023-05-14T09:40:56;17.80;98.60
11744;DHT22;5929;51.906;7.674;2023-05-14T09:43:26;18.00;98.20
11744;DHT22;5929;51.906;7.674;2023-05-14T09:45:52;18.10;96.60
11744;DHT22;5929;51.906;7.674;2023-05-14T09:48:19;18.20;96.70
11744;DHT22;5929;51.906;7.674;2023-05-14T09:50:47;18.40;95.90
11744;DHT22;5929;51.906;7.674;2023-05-14T09:53:16;18.50;96.70
11744;DHT22;5929;51.906;7.674;2023-05-14T09:55:44;18.50;96.80
11744;DHT22;5929;51.906;7.674;2023-05-14T09:58:12;18.70;97.10
11744;DHT22;5929;51.906;7.674;2023-05-14T10:00:43;18.80;96.60
11744;DHT22;5929;51.906;7.674;2023-05-14T10:03:12;18.80;96.30
11744;DHT22;5929;51.906;7.674;2023-05-14T10:05:40;18.90;95.80
11744;DHT22;5929;51.906;7.674;2023-05-14T10:08:11;19.00;96.20
11744;DHT22;5929;51.906;7.674;2023-05-14T10:10:39;19.10;94.20
11744;DHT22;5929;51.906;7.674;2023-05-14T10:13:10;19.10;94.30
11744;DHT22;5929;51.906;7.674;2023-05-14T10:15:45;19.20;94.20
11744;DHT22;5929;51.906;7.674;2023-05-14T10:18:16;19.20;95.10
11744;DHT22;5929;51.906;7.674;2023-05-14T10:20:47;19.10;94.90
11744;DHT22;5929;51.906;7.674;2023-05-14T10:23:13;18.90;95.40
11744;DHT22;5929;51.906;7.674;2023-05-14T10:25:41;19.00;95.40
11744;DHT22;5929;51.906;7.674;2023-05-14T10:28:08;19.20;94.90
11744;DHT22;5929;51.906;7.674;2023-05-14T10:30:44;19.40;94.20
11744;DHT22;5929;51.906;7.674;2023-05-14T10:33:13;19.60;93.30
11744;DHT22;5929;51.906;7.674;2023-05-14T10:35:54;19.70;94.00
11744;DHT22;5929;51.906;7.674;2023-05-14T10:38:22;19.60;93.30
11744;DHT22;5929;51.906;7.674;2023-05-14T10:40:54;19.60;94.20
11744;DHT22;5929;51.906;7.674;2023-05-14T10:43:24;19.70;94.40
11744;DHT22;5929;51.906;7.674;2023-05-14T10:45:53;20.10;93.90
11744;DHT22;5929;51.906;7.674;2023-05-14T10:48:21;20.50;93.60
11744;DHT22;5929;51.906;7.674;2023-05-14T10:50:48;20.60;93.10
11744;DHT22;5929;51.906;7.674;2023-05-14T10:53:16;20.80;92.50
11744;DHT22;5929;51.906;7.674;2023-05-14T10:55:43;20.90;92.70
11744;DHT22;5929;51.906;7.674;2023-05-14T10:58:10;21.10;91.20
11744;DHT22;5929;51.906;7.674;2023-05-14T11:00:40;21.20;93.00
11744;DHT22;5929;51.906;7.674;2023-05-14T11:03:09;21.40;93.00
11744;DHT22;5929;51.906;7.674;2023-05-14T11:05:40;21.60;92.10
11744;DHT22;5929;51.906;7.674;2023-05-14T11:08:07;21.70;91.00
11744;DHT22;5929;51.906;7.674;2023-05-14T11:10:34;21.70;90.70
11744;DHT22;5929;51.906;7.674;2023-05-14T11:13:01;21.70;90.40
11744;DHT22;5929;51.906;7.674;2023-05-14T11:15:28;21.70;90.30
11744;DHT22;5929;51.906;7.674;2023-05-14T11:17:55;21.90;91.10
11744;DHT22;5929;51.906;7.674;2023-05-14T11:20:23;22.90;90.50
11744;DHT22;5929;51.906;7.674;2023-05-14T11:22:50;22.60;88.70
11744;DHT22;5929;51.906;7.674;2023-05-14T11:25:17;22.20;86.50
11744;DHT22;5929;51.906;7.674;2023-05-14T11:27:44;22.20;89.30
11744;DHT22;5929;51.906;7.674;2023-05-14T11:30:13;22.60;88.70
11744;DHT22;5929;51.906;7.674;2023-05-14T11:32:43;22.90;88.70
11744;DHT22;5929;51.906;7.674;2023-05-14T11:35:10;23.50;88.30
11744;DHT22;5929;51.906;7.674;2023-05-14T11:37:38;23.90;85.50
11744;DHT22;5929;51.906;7.674;2023-05-14T11:40:07;23.70;87.30
11744;DHT22;5929;51.906;7.674;2023-05-14T11:42:35;23.70;88.90
11744;DHT22;5929;51.906;7.674;2023-05-14T11:45:03;24.10;85.50
11744;DHT22;5929;51.906;7.674;2023-05-14T11:47:30;24.30;88.20
11744;DHT22;5929;51.906;7.674;2023-05-14T11:49:58;24.80;87.90
11744;DHT22;5929;51.906;7.674;2023-05-14T11:52:25;25.10;83.10
11744;DHT22;5929;51.906;7.674;2023-05-14T11:54:53;24.50;83.00
11744;DHT22;5929;51.906;7.674;2023-05-14T11:57:21;23.70;84.20
11744;DHT22;5929;51.906;7.674;2023-05-14T11:59:54;24.40;85.30
11744;DHT22;5929;51.906;7.674;2023-05-14T12:02:21;24.10;87.00
11744;DHT22;5929;51.906;7.674;2023-05-14T12:04:50;24.10;83.70
11744;DHT22;5929;51.906;7.674;2023-05-14T12:07:18;23.60;85.70
11744;DHT22;5929;51.906;7.674;2023-05-14T12:09:47;23.00;87.50
11744;DHT22;5929;51.906;7.674;2023-05-14T12:12:17;21.90;89.30
11744;DHT22;5929;51.906;7.674;2023-05-14T12:14:44;21.20;90.30
11744;DHT22;5929;51.906;7.674;2023-05-14T12:17:13;21.10;90.70
11744;DHT22;5929;51.906;7.674;2023-05-14T12:19:41;21.40;91.00
11744;DHT22;5929;51.906;7.674;2023-05-14T12:22:09;21.80;91.00
11744;DHT22;5929;51.906;7.674;2023-05-14T12:24:37;22.80;86.00
11744;DHT22;5929;51.906;7.674;2023-05-14T12:27:08;23.10;88.20
11744;DHT22;5929;51.906;7.674;2023-05-14T12:29:37;23.90;86.20
11744;DHT22;5929;51.906;7.674;2023-05-14T12:32:07;24.30;84.30
11744;DHT22;5929;51.906;7.674;2023-05-14T12:34:36;24.40;81.80
11744;DHT22;5929;51.906;7.674;2023-05-14T12:37:03;24.50;83.70
11744;DHT22;5929;51.906;7.674;2023-05-14T12:39:32;25.20;82.30
11744;DHT22;5929;51.906;7.674;2023-05-14T12:41:59;25.50;81.10
11744;DHT22;5929;51.906;7.674;2023-05-14T12:44:25;26.00;80.70
11744;DHT22;5929;51.906;7.674;2023-05-14T12:46:54;27.10;76.80
11744;DHT22;5929;51.906;7.674;2023-05-14T12:49:20;27.80;73.70
11744;DHT22;5929;51.906;7.674;2023-05-14T12:51:47;27.60;76.10
11744;DHT22;5929;51.906;7.674;2023-05-14T12:54:14;26.70;77.80
11744;DHT22;5929;51.906;7.674;2023-05-14T12:56:41;25.20;80.40
11744;DHT22;5929;51.906;7.674;2023-05-14T12:59:08;25.20;81.90
11744;DHT22;5929;51.906;7.674;2023-05-14T13:01:35;24.60;81.30
11744;DHT22;5929;51.906;7.674;2023-05-14T13:04:04;24.60;82.20
11744;DHT22;5929;51.906;7.674;2023-05-14T13:06:31;24.50;82.60
11744;DHT22;5929;51.906;7.674;2023-05-14T13:08:58;23.90;83.10
11744;DHT22;5929;51.906;7.674;2023-05-14T13:11:26;24.30;83.00
11744;DHT22;5929;51.906;7.674;2023-05-14T13:13:56;24.60;80.40
11744;DHT22;5929;51.906;7.674;2023-05-14T13:16:24;25.40;78.20
11744;DHT22;5929;51.906;7.674;2023-05-14T13:18:51;25.60;79.10
11744;DHT22;5929;51.906;7.674;2023-05-14T13:21:19;25.00;80.50
11744;DHT22;5929;51.906;7.674;2023-05-14T13:23:46;24.50;81.30
11744;DHT22;5929;51.906;7.674;2023-05-14T13:26:13;24.30;81.20
11744;DHT22;5929;51.906;7.674;2023-05-14T13:28:40;24.40;79.60
11744;DHT22;5929;51.906;7.674;2023-05-14T13:31:09;24.70;80.90
11744;DHT22;5929;51.906;7.674;2023-05-14T13:33:38;25.10;80.30
11744;DHT22;5929;51.906;7.674;2023-05-14T13:36:08;25.80;76.80
11744;DHT22;5929;51.906;7.674;2023-05-14T13:38:37;25.90;79.40
11744;DHT22;5929;51.906;7.674;2023-05-14T13:41:05;25.70;79.30
11744;DHT22;5929;51.906;7.674;2023-05-14T13:43:32;25.50;77.20
11744;DHT22;5929;51.906;7.674;2023-05-14T13:46:00;26.10;76.60
11744;DHT22;5929;51.906;7.674;2023-05-14T13:48:28;26.40;76.40
11744;DHT22;5929;51.906;7.674;2023-05-14T13:50:56;26.50;78.70
11744;DHT22;5929;51.906;7.674;2023-05-14T13:53:23;26.90;74.90
11744;DHT22;5929;51.906;7.674;2023-05-14T13:55:52;27.20;77.20
11744;DHT22;5929;51.906;7.674;2023-05-14T13:58:21;28.30;72.10
11744;DHT22;5929;51.906;7.674;2023-05-14T14:00:48;27.50;73.80
11744;DHT22;5929;51.906;7.674;2023-05-14T14:03:15;25.90;76.60
11744;DHT22;5929;51.906;7.674;2023-05-14T14:05:45;25.10;78.50
11744;DHT22;5929;51.906;7.674;2023-05-14T14:08:12;24.20;79.10
11744;DHT22;5929;51.906;7.674;2023-05-14T14:10:39;23.60;80.20
11744;DHT22;5929;51.906;7.674;2023-05-14T14:13:08;23.50;82.60
11744;DHT22;5929;51.906;7.674;2023-05-14T14:15:36;23.40;82.10
11744;DHT22;5929;51.906;7.674;2023-05-14T14:18:03;23.10;82.40
11744;DHT22;5929;51.906;7.674;2023-05-14T14:20:32;23.10;82.50
11744;DHT22;5929;51.906;7.674;2023-05-14T14:22:59;22.90;82.50
11744;DHT22;5929;51.906;7.674;2023-05-14T14:25:26;22.60;83.10
11744;DHT22;5929;51.906;7.674;2023-05-14T14:27:53;22.50;82.40
11744;DHT22;5929;51.906;7.674;2023-05-14T14:30:22;22.40;83.10
11744;DHT22;5929;51.906;7.674;2023-05-14T14:32:49;22.20;84.00
11744;DHT22;5929;51.906;7.674;2023-05-14T14:35:17;22.10;83.10
11744;DHT22;5929;51.906;7.674;2023-05-14T14:37:44;21.80;82.20
11744;DHT22;5929;51.906;7.674;2023-05-14T14:40:14;22.20;80.20
11744;DHT22;5929;51.906;7.674;2023-05-14T14:42:41;22.60;82.70
11744;DHT22;5929;51.906;7.674;2023-05-14T14:45:09;22.90;80.10
11744;DHT22;5929;51.906;7.674;2023-05-14T14:47:37;23.40;81.30
11744;DHT22;5929;51.906;7.674;2023-05-14T14:50:05;24.40;76.40
11744;DHT22;5929;51.906;7.674;2023-05-14T14:52:32;24.10;77.80
11744;DHT22;5929;51.906;7.674;2023-05-14T14:55:08;24.30;79.30
11744;DHT22;5929;51.906;7.674;2023-05-14T14:57:35;23.70;74.90
11744;DHT22;5929;51.906;7.674;2023-05-14T15:00:02;23.30;77.00
11744;DHT22;5929;51.906;7.674;2023-05-14T15:02:30;23.20;78.60
11744;DHT22;5929;51.906;7.674;2023-05-14T15:04:58;23.50;79.30
11744;DHT22;5929;51.906;7.674;2023-05-14T15:07:25;23.40;79.20
11744;DHT22;5929;51.906;7.674;2023-05-14T15:09:52;23.60;79.60
11744;DHT22;5929;51.906;7.674;2023-05-14T15:12:19;23.50;79.40
11744;DHT22;5929;51.906;7.674;2023-05-14T15:14:46;23.80;79.50
11744;DHT22;5929;51.906;7.674;2023-05-14T15:17:13;23.70;77.50
11744;DHT22;5929;51.906;7.674;2023-05-14T15:19:40;23.60;80.20
11744;DHT22;5929;51.906;7.674;2023-05-14T15:22:08;23.20;81.70
11744;DHT22;5929;51.906;7.674;2023-05-14T15:24:37;23.20;79.90
11744;DHT22;5929;51.906;7.674;2023-05-14T15:27:04;22.80;80.80
11744;DHT22;5929;51.906;7.674;2023-05-14T15:29:31;22.40;81.40
11744;DHT22;5929;51.906;7.674;2023-05-14T15:31:58;22.20;84.00
11744;DHT22;5929;51.906;7.674;2023-05-14T15:34:25;21.90;78.20
11744;DHT22;5929;51.906;7.674;2023-05-14T15:36:52;21.50;84.10
11744;DHT22;5929;51.906;7.674;2023-05-14T15:39:20;21.30;85.70
11744;DHT22;5929;51.906;7.674;2023-05-14T15:41:46;21.40;81.40
11744;DHT22;5929;51.906;7.674;2023-05-14T15:44:13;21.40;85.10
11744;DHT22;5929;51.906;7.674;2023-05-14T15:46:42;21.20;86.30
11744;DHT22;5929;51.906;7.674;2023-05-14T15:49:09;21.40;83.40
11744;DHT22;5929;51.906;7.674;2023-05-14T15:51:36;21.60;84.70